sensor_id;sensor_type;location;lat;lon;timestamp;pressure;altitude;pressure_sealevel;temperature;humidity
83418;BME280;74442;50.104;14.472;2023-12-20T00:00:12;99062.68;;;6.82;58.58
83418;BME280;74442;50.104;14.472;2023-12-20T00:02:44;99066.52;;;6.83;59.04
83418;BME280;74442;50.104;14.472;2023-12-20T00:05:17;99059.80;;;6.87;59.07
83418;BME280;74442;50.104;14.472;2023-12-20T00:07:50;99057.94;;;6.91;59.11
83418;BME280;74442;50.104;14.472;2023-12-20T00:10:21;99062.79;;;6.92;59.34
83418;BME280;74442;50.104;14.472;2023-12-20T00:12:52;99053.95;;;6.91;59.62
83418;BME280;74442;50.104;14.472;2023-12-20T00:15:24;99045.48;;;6.92;59.64
83418;BME280;74442;50.104;14.472;2023-12-20T00:17:57;99049.48;;;6.93;59.87
83418;BME280;74442;50.104;14.472;2023-12-20T00:20:29;99055.55;;;6.94;59.79
83418;BME280;74442;50.104;14.472;2023-12-20T00:23:00;99056.58;;;6.95;60.09
83418;BME280;74442;50.104;14.472;2023-12-20T00:25:32;99060.56;;;6.95;60.87
83418;BME280;74442;50.104;14.472;2023-12-20T00:28:04;99043.77;;;6.92;61.20
83418;BME280;74442;50.104;14.472;2023-12-20T00:30:36;99038.37;;;6.90;61.58
83418;BME280;74442;50.104;14.472;2023-12-20T00:33:08;99034.34;;;6.84;61.89
83418;BME280;74442;50.104;14.472;2023-12-20T00:35:47;99038.77;;;6.78;62.63
83418;BME280;74442;50.104;14.472;2023-12-20T00:38:27;99042.48;;;6.70;62.97
83418;BME280;74442;50.104;14.472;2023-12-20T00:40:58;99052.15;;;6.67;63.31
83418;BME280;74442;50.104;14.472;2023-12-20T00:43:30;99051.98;;;6.66;63.80
83418;BME280;74442;50.104;14.472;2023-12-20T00:46:02;99036.17;;;6.63;63.97
83418;BME280;74442;50.104;14.472;2023-12-20T00:48:33;99015.23;;;6.61;63.97
83418;BME280;74442;50.104;14.472;2023-12-20T00:51:06;99022.85;;;6.62;63.98
83418;BME280;74442;50.104;14.472;2023-12-20T00:53:36;99027.52;;;6.62;64.43
83418;BME280;74442;50.104;14.472;2023-12-20T00:56:10;99019.04;;;6.60;64.95
83418;BME280;74442;50.104;14.472;2023-12-20T00:58:43;98998.41;;;6.57;64.69
83418;BME280;74442;50.104;14.472;2023-12-20T01:01:14;99009.17;;;6.60;65.29
83418;BME280;74442;50.104;14.472;2023-12-20T01:03:45;98996.67;;;6.56;65.68
83418;BME280;74442;50.104;14.472;2023-12-20T01:06:17;98996.17;;;6.57;65.89
83418;BME280;74442;50.104;14.472;2023-12-20T01:08:49;98996.99;;;6.54;66.21
83418;BME280;74442;50.104;14.472;2023-12-20T01:11:25;98995.55;;;6.47;66.59
83418;BME280;74442;50.104;14.472;2023-12-20T01:13:55;99001.71;;;6.42;67.17
83418;BME280;74442;50.104;14.472;2023-12-20T01:16:27;99003.55;;;6.37;67.24
83418;BME280;74442;50.104;14.472;2023-12-20T01:18:59;99000.92;;;6.33;67.22
83418;BME280;74442;50.104;14.472;2023-12-20T01:21:29;99003.00;;;6.32;67.99
83418;BME280;74442;50.104;14.472;2023-12-20T01:24:06;99001.41;;;6.30;68.24
83418;BME280;74442;50.104;14.472;2023-12-20T01:26:40;98995.84;;;6.28;68.44
83418;BME280;74442;50.104;14.472;2023-12-20T01:29:13;98987.70;;;6.25;68.56
83418;BME280;74442;50.104;14.472;2023-12-20T01:31:45;98986.30;;;6.24;68.72
83418;BME280;74442;50.104;14.472;2023-12-20T01:34:16;98981.30;;;6.26;68.76
83418;BME280;74442;50.104;14.472;2023-12-20T01:36:48;98975.95;;;6.26;69.27
83418;BME280;74442;50.104;14.472;2023-12-20T01:39:23;98970.76;;;6.25;69.08
83418;BME280;74442;50.104;14.472;2023-12-20T01:41:56;98960.73;;;6.26;69.44
83418;BME280;74442;50.104;14.472;2023-12-20T01:44:27;98951.20;;;6.23;69.58
83418;BME280;74442;50.104;14.472;2023-12-20T01:46:58;98946.34;;;6.21;69.67
83418;BME280;74442;50.104;14.472;2023-12-20T01:49:29;98935.98;;;6.23;69.91
83418;BME280;74442;50.104;14.472;2023-12-20T01:52:01;98935.16;;;6.26;70.01
83418;BME280;74442;50.104;14.472;2023-12-20T01:54:32;98933.95;;;6.27;70.07
83418;BME280;74442;50.104;14.472;2023-12-20T01:57:07;98933.61;;;6.27;70.21
83418;BME280;74442;50.104;14.472;2023-12-20T01:59:40;98934.46;;;6.26;70.53
83418;BME280;74442;50.104;14.472;2023-12-20T02:02:12;98932.73;;;6.26;70.65
83418;BME280;74442;50.104;14.472;2023-12-20T02:04:46;98923.23;;;6.26;70.29
83418;BME280;74442;50.104;14.472;2023-12-20T02:07:18;98928.64;;;6.30;70.53
83418;BME280;74442;50.104;14.472;2023-12-20T02:09:49;98930.05;;;6.31;70.74
83418;BME280;74442;50.104;14.472;2023-12-20T02:12:21;98932.61;;;6.30;70.89
83418;BME280;74442;50.104;14.472;2023-12-20T02:14:54;98929.81;;;6.28;70.93
83418;BME280;74442;50.104;14.472;2023-12-20T02:17:26;98925.80;;;6.25;71.25
83418;BME280;74442;50.104;14.472;2023-12-20T02:19:58;98925.83;;;6.27;70.88
83418;BME280;74442;50.104;14.472;2023-12-20T02:22:28;98923.08;;;6.27;70.67
83418;BME280;74442;50.104;14.472;2023-12-20T02:25:07;98930.06;;;6.35;70.90
83418;BME280;74442;50.104;14.472;2023-12-20T02:27:36;98929.04;;;6.37;70.90
83418;BME280;74442;50.104;14.472;2023-12-20T02:30:07;98923.86;;;6.37;70.89
83418;BME280;74442;50.104;14.472;2023-12-20T02:32:37;98923.88;;;6.37;70.72
83418;BME280;74442;50.104;14.472;2023-12-20T02:35:06;98924.59;;;6.40;70.71
83418;BME280;74442;50.104;14.472;2023-12-20T02:37:35;98922.86;;;6.40;70.96
83418;BME280;74442;50.104;14.472;2023-12-20T02:40:06;98915.23;;;6.36;70.96
83418;BME280;74442;50.104;14.472;2023-12-20T02:42:36;98919.75;;;6.40;71.13
83418;BME280;74442;50.104;14.472;2023-12-20T02:45:07;98915.09;;;6.41;71.39
83418;BME280;74442;50.104;14.472;2023-12-20T02:47:36;98918.19;;;6.39;71.59
83418;BME280;74442;50.104;14.472;2023-12-20T02:50:07;98911.38;;;6.31;72.01
83418;BME280;74442;50.104;14.472;2023-12-20T02:52:36;98906.96;;;6.25;72.05
83418;BME280;74442;50.104;14.472;2023-12-20T02:55:06;98906.40;;;6.19;72.47
83418;BME280;74442;50.104;14.472;2023-12-20T02:57:35;98909.13;;;6.17;72.52
83418;BME280;74442;50.104;14.472;2023-12-20T03:00:07;98914.30;;;6.16;73.13
83418;BME280;74442;50.104;14.472;2023-12-20T03:02:37;98913.39;;;6.12;73.70
83418;BME280;74442;50.104;14.472;2023-12-20T03:05:08;98914.88;;;6.05;74.23
83418;BME280;74442;50.104;14.472;2023-12-20T03:07:39;98909.62;;;5.98;74.19
83418;BME280;74442;50.104;14.472;2023-12-20T03:10:09;98911.98;;;5.92;74.84
83418;BME280;74442;50.104;14.472;2023-12-20T03:12:38;98917.26;;;5.89;75.40
83418;BME280;74442;50.104;14.472;2023-12-20T03:15:08;98914.97;;;5.87;75.37
83418;BME280;74442;50.104;14.472;2023-12-20T03:20:41;98907.70;;;5.86;75.84
83418;BME280;74442;50.104;14.472;2023-12-20T03:23:11;98904.39;;;5.83;76.23
83418;BME280;74442;50.104;14.472;2023-12-20T03:25:40;98904.03;;;5.81;76.65
83418;BME280;74442;50.104;14.472;2023-12-20T03:28:09;98903.31;;;5.80;76.48
83418;BME280;74442;50.104;14.472;2023-12-20T03:30:38;98904.69;;;5.80;76.70
83418;BME280;74442;50.104;14.472;2023-12-20T03:33:08;98906.92;;;5.78;76.91
83418;BME280;74442;50.104;14.472;2023-12-20T03:35:37;98901.37;;;5.76;77.07
83418;BME280;74442;50.104;14.472;2023-12-20T03:38:07;98903.77;;;5.73;77.12
83418;BME280;74442;50.104;14.472;2023-12-20T03:40:38;98906.65;;;5.70;77.11
83418;BME280;74442;50.104;14.472;2023-12-20T03:43:07;98905.78;;;5.70;77.16
83418;BME280;74442;50.104;14.472;2023-12-20T03:45:36;98903.85;;;5.67;77.29
83418;BME280;74442;50.104;14.472;2023-12-20T03:48:06;98908.70;;;5.68;77.28
83418;BME280;74442;50.104;14.472;2023-12-20T03:50:37;98905.58;;;5.66;77.44
83418;BME280;74442;50.104;14.472;2023-12-20T03:53:07;98906.78;;;5.65;77.43
83418;BME280;74442;50.104;14.472;2023-12-20T03:55:36;98902.43;;;5.62;77.29
83418;BME280;74442;50.104;14.472;2023-12-20T03:58:06;98901.58;;;5.64;77.34
83418;BME280;74442;50.104;14.472;2023-12-20T04:00:35;98897.70;;;5.59;77.76
83418;BME280;74442;50.104;14.472;2023-12-20T04:03:05;98899.79;;;5.59;77.68
83418;BME280;74442;50.104;14.472;2023-12-20T04:05:33;98903.06;;;5.59;77.86
83418;BME280;74442;50.104;14.472;2023-12-20T04:08:04;98904.27;;;5.60;77.89
83418;BME280;74442;50.104;14.472;2023-12-20T04:10:33;98901.16;;;5.60;78.07
83418;BME280;74442;50.104;14.472;2023-12-20T04:13:01;98901.52;;;5.60;78.00
83418;BME280;74442;50.104;14.472;2023-12-20T04:15:30;98900.13;;;5.59;78.00
83418;BME280;74442;50.104;14.472;2023-12-20T04:18:01;98902.17;;;5.56;77.87
83418;BME280;74442;50.104;14.472;2023-12-20T04:20:31;98902.30;;;5.55;78.02
83418;BME280;74442;50.104;14.472;2023-12-20T04:23:00;98907.52;;;5.56;78.00
83418;BME280;74442;50.104;14.472;2023-12-20T04:25:31;98909.91;;;5.55;78.07
83418;BME280;74442;50.104;14.472;2023-12-20T04:28:00;98910.06;;;5.54;77.96
83418;BME280;74442;50.104;14.472;2023-12-20T04:30:28;98911.96;;;5.54;77.72
83418;BME280;74442;50.104;14.472;2023-12-20T04:32:57;98912.46;;;5.53;77.57
83418;BME280;74442;50.104;14.472;2023-12-20T04:35:25;98913.80;;;5.49;77.74
83418;BME280;74442;50.104;14.472;2023-12-20T04:37:56;98917.27;;;5.49;77.77
83418;BME280;74442;50.104;14.472;2023-12-20T04:40:25;98915.20;;;5.50;77.58
83418;BME280;74442;50.104;14.472;2023-12-20T04:42:56;98917.47;;;5.53;77.48
83418;BME280;74442;50.104;14.472;2023-12-20T04:45:25;98911.94;;;5.52;77.40
83418;BME280;74442;50.104;14.472;2023-12-20T04:47:55;98912.12;;;5.52;77.44
83418;BME280;74442;50.104;14.472;2023-12-20T04:50:24;98917.13;;;5.52;77.54
83418;BME280;74442;50.104;14.472;2023-12-20T04:52:54;98912.60;;;5.50;77.55
83418;BME280;74442;50.104;14.472;2023-12-20T04:55:23;98919.02;;;5.53;77.59
83418;BME280;74442;50.104;14.472;2023-12-20T04:57:52;98914.89;;;5.53;77.59
83418;BME280;74442;50.104;14.472;2023-12-20T05:06:19;98924.15;;;5.47;78.10
83418;BME280;74442;50.104;14.472;2023-12-20T05:09:00;98917.54;;;5.45;78.81
83418;BME280;74442;50.104;14.472;2023-12-20T05:14:57;98921.14;;;5.43;78.75
83418;BME280;74442;50.104;14.472;2023-12-20T05:17:42;98919.58;;;5.42;78.77
83418;BME280;74442;50.104;14.472;2023-12-20T05:20:11;98919.34;;;5.37;78.79
83418;BME280;74442;50.104;14.472;2023-12-20T05:22:40;98925.38;;;5.38;78.78
83418;BME280;74442;50.104;14.472;2023-12-20T05:25:10;98925.05;;;5.38;78.60
83418;BME280;74442;50.104;14.472;2023-12-20T05:27:41;98924.48;;;5.36;78.51
83418;BME280;74442;50.104;14.472;2023-12-20T05:30:14;98923.44;;;5.34;78.53
83418;BME280;74442;50.104;14.472;2023-12-20T05:32:45;98929.67;;;5.36;78.31
83418;BME280;74442;50.104;14.472;2023-12-20T05:35:14;98928.45;;;5.35;78.46
83418;BME280;74442;50.104;14.472;2023-12-20T05:37:43;98928.26;;;5.33;78.76
83418;BME280;74442;50.104;14.472;2023-12-20T05:40:12;98935.32;;;5.31;78.71
83418;BME280;74442;50.104;14.472;2023-12-20T05:42:41;98937.04;;;5.31;78.59
83418;BME280;74442;50.104;14.472;2023-12-20T05:45:10;98935.11;;;5.29;78.43
83418;BME280;74442;50.104;14.472;2023-12-20T05:47:39;98939.63;;;5.30;78.44
83418;BME280;74442;50.104;14.472;2023-12-20T05:50:09;98941.67;;;5.29;78.29
83418;BME280;74442;50.104;14.472;2023-12-20T05:52:38;98940.77;;;5.28;78.38
83418;BME280;74442;50.104;14.472;2023-12-20T05:55:07;98937.47;;;5.26;78.28
83418;BME280;74442;50.104;14.472;2023-12-20T05:57:36;98934.19;;;5.26;78.32
83418;BME280;74442;50.104;14.472;2023-12-20T06:00:07;98940.23;;;5.26;78.34
83418;BME280;74442;50.104;14.472;2023-12-20T06:02:37;98937.61;;;5.23;78.27
83418;BME280;74442;50.104;14.472;2023-12-20T06:05:07;98940.73;;;5.24;78.08
83418;BME280;74442;50.104;14.472;2023-12-20T06:07:36;98934.30;;;5.21;78.09
83418;BME280;74442;50.104;14.472;2023-12-20T06:10:06;98936.16;;;5.20;78.42
83418;BME280;74442;50.104;14.472;2023-12-20T06:12:35;98937.18;;;5.19;78.26
83418;BME280;74442;50.104;14.472;2023-12-20T06:15:05;98942.55;;;5.20;78.34
83418;BME280;74442;50.104;14.472;2023-12-20T06:17:34;98945.33;;;5.20;78.32
83418;BME280;74442;50.104;14.472;2023-12-20T06:20:05;98948.08;;;5.20;78.23
83418;BME280;74442;50.104;14.472;2023-12-20T06:22:36;98952.86;;;5.17;78.32
83418;BME280;74442;50.104;14.472;2023-12-20T06:25:06;98953.02;;;5.16;78.39
83418;BME280;74442;50.104;14.472;2023-12-20T06:27:35;98959.41;;;5.17;78.45
83418;BME280;74442;50.104;14.472;2023-12-20T06:30:06;98956.30;;;5.16;78.28
83418;BME280;74442;50.104;14.472;2023-12-20T06:32:37;98956.62;;;5.14;78.31
83418;BME280;74442;50.104;14.472;2023-12-20T06:35:08;98958.36;;;5.15;78.36
83418;BME280;74442;50.104;14.472;2023-12-20T06:37:37;98955.58;;;5.13;78.40
83418;BME280;74442;50.104;14.472;2023-12-20T06:40:11;98956.41;;;5.13;78.50
83418;BME280;74442;50.104;14.472;2023-12-20T06:42:41;98958.79;;;5.10;78.42
83418;BME280;74442;50.104;14.472;2023-12-20T06:45:11;98966.20;;;5.09;78.44
83418;BME280;74442;50.104;14.472;2023-12-20T06:47:42;98969.48;;;5.10;78.58
83418;BME280;74442;50.104;14.472;2023-12-20T06:50:12;98977.96;;;5.12;78.48
83418;BME280;74442;50.104;14.472;2023-12-20T06:52:42;98979.34;;;5.12;78.33
83418;BME280;74442;50.104;14.472;2023-12-20T06:55:13;98981.61;;;5.13;78.38
83418;BME280;74442;50.104;14.472;2023-12-20T06:57:42;98991.60;;;5.12;78.53
83418;BME280;74442;50.104;14.472;2023-12-20T07:00:14;98992.78;;;5.11;78.98
83418;BME280;74442;50.104;14.472;2023-12-20T07:02:44;99001.03;;;5.08;78.76
83418;BME280;74442;50.104;14.472;2023-12-20T07:05:18;99003.11;;;5.08;78.83
83418;BME280;74442;50.104;14.472;2023-12-20T07:07:48;99002.73;;;5.07;78.87
83418;BME280;74442;50.104;14.472;2023-12-20T07:10:19;99011.56;;;5.09;79.27
83418;BME280;74442;50.104;14.472;2023-12-20T07:12:49;99010.52;;;5.07;79.36
83418;BME280;74442;50.104;14.472;2023-12-20T07:15:21;99009.92;;;5.03;79.46
83418;BME280;74442;50.104;14.472;2023-12-20T07:17:52;99020.34;;;4.97;79.83
83418;BME280;74442;50.104;14.472;2023-12-20T07:20:23;99025.80;;;4.95;79.94
83418;BME280;74442;50.104;14.472;2023-12-20T07:22:53;99025.63;;;4.94;80.01
83418;BME280;74442;50.104;14.472;2023-12-20T07:25:24;99031.33;;;4.95;80.06
83418;BME280;74442;50.104;14.472;2023-12-20T07:27:55;99022.38;;;4.95;80.32
83418;BME280;74442;50.104;14.472;2023-12-20T07:30:26;99019.99;;;4.97;80.14
83418;BME280;74442;50.104;14.472;2023-12-20T07:32:56;99039.17;;;4.99;80.15
83418;BME280;74442;50.104;14.472;2023-12-20T07:35:26;99038.46;;;4.97;80.17
83418;BME280;74442;50.104;14.472;2023-12-20T07:37:56;99035.30;;;4.95;80.21
83418;BME280;74442;50.104;14.472;2023-12-20T07:40:27;99037.38;;;4.95;80.27
83418;BME280;74442;50.104;14.472;2023-12-20T07:43:08;99042.89;;;4.95;79.99
83418;BME280;74442;50.104;14.472;2023-12-20T07:46:01;99052.77;;;4.97;79.95
83418;BME280;74442;50.104;14.472;2023-12-20T07:51:51;99049.55;;;5.01;79.66
83418;BME280;74442;50.104;14.472;2023-12-20T07:54:21;99047.99;;;5.00;79.59
83418;BME280;74442;50.104;14.472;2023-12-20T07:57:01;99064.39;;;5.01;79.34
83418;BME280;74442;50.104;14.472;2023-12-20T07:59:32;99058.54;;;5.02;79.13
83418;BME280;74442;50.104;14.472;2023-12-20T08:02:02;99049.64;;;5.05;78.88
83418;BME280;74442;50.104;14.472;2023-12-20T08:04:32;99050.71;;;5.08;78.68
83418;BME280;74442;50.104;14.472;2023-12-20T08:07:02;99048.52;;;5.12;78.79
83418;BME280;74442;50.104;14.472;2023-12-20T08:09:33;99049.39;;;5.12;78.41
83418;BME280;74442;50.104;14.472;2023-12-20T08:12:06;99042.66;;;5.12;78.43
83418;BME280;74442;50.104;14.472;2023-12-20T08:14:38;99044.80;;;5.15;78.29
83418;BME280;74442;50.104;14.472;2023-12-20T08:17:08;99046.89;;;5.16;77.80
83418;BME280;74442;50.104;14.472;2023-12-20T08:19:38;99048.81;;;5.19;78.01
83418;BME280;74442;50.104;14.472;2023-12-20T08:22:09;99050.92;;;5.21;77.88
83418;BME280;74442;50.104;14.472;2023-12-20T08:24:38;99048.54;;;5.21;77.76
83418;BME280;74442;50.104;14.472;2023-12-20T08:27:07;99059.23;;;5.21;77.47
83418;BME280;74442;50.104;14.472;2023-12-20T08:29:38;99061.50;;;5.23;77.36
83418;BME280;74442;50.104;14.472;2023-12-20T08:32:08;99065.17;;;5.26;77.23
83418;BME280;74442;50.104;14.472;2023-12-20T08:34:37;99069.35;;;5.29;77.07
83418;BME280;74442;50.104;14.472;2023-12-20T08:37:07;99068.04;;;5.32;76.88
83418;BME280;74442;50.104;14.472;2023-12-20T08:39:37;99065.65;;;5.34;76.73
83418;BME280;74442;50.104;14.472;2023-12-20T08:42:07;99068.09;;;5.36;76.57
83418;BME280;74442;50.104;14.472;2023-12-20T08:44:37;99055.85;;;5.37;76.41
83418;BME280;74442;50.104;14.472;2023-12-20T08:47:07;99065.06;;;5.40;76.41
83418;BME280;74442;50.104;14.472;2023-12-20T08:49:37;99069.41;;;5.42;76.35
83418;BME280;74442;50.104;14.472;2023-12-20T08:52:07;99070.30;;;5.45;76.39
83418;BME280;74442;50.104;14.472;2023-12-20T08:54:36;99062.21;;;5.46;76.15
83418;BME280;74442;50.104;14.472;2023-12-20T08:57:06;99056.38;;;5.48;75.97
83418;BME280;74442;50.104;14.472;2023-12-20T08:59:36;99049.11;;;5.46;75.88
83418;BME280;74442;50.104;14.472;2023-12-20T09:02:06;99055.27;;;5.55;75.90
83418;BME280;74442;50.104;14.472;2023-12-20T09:04:37;99060.88;;;5.59;75.74
83418;BME280;74442;50.104;14.472;2023-12-20T09:07:07;99064.73;;;5.62;75.44
83418;BME280;74442;50.104;14.472;2023-12-20T09:09:50;99060.61;;;5.65;75.08
83418;BME280;74442;50.104;14.472;2023-12-20T09:12:20;99055.84;;;5.70;75.10
83418;BME280;74442;50.104;14.472;2023-12-20T09:14:51;99054.17;;;5.72;75.07
83418;BME280;74442;50.104;14.472;2023-12-20T09:17:22;99060.09;;;5.76;75.02
83418;BME280;74442;50.104;14.472;2023-12-20T09:19:55;99062.13;;;5.86;74.88
83418;BME280;74442;50.104;14.472;2023-12-20T09:22:25;99061.45;;;5.97;74.53
83418;BME280;74442;50.104;14.472;2023-12-20T09:24:54;99068.16;;;6.06;74.00
83418;BME280;74442;50.104;14.472;2023-12-20T09:27:25;99069.31;;;6.15;73.98
83418;BME280;74442;50.104;14.472;2023-12-20T09:29:57;99073.16;;;6.20;73.72
83418;BME280;74442;50.104;14.472;2023-12-20T09:32:27;99072.15;;;6.20;73.33
83418;BME280;74442;50.104;14.472;2023-12-20T09:34:58;99077.48;;;6.31;72.92
83418;BME280;74442;50.104;14.472;2023-12-20T09:37:36;99071.39;;;6.41;72.64
83418;BME280;74442;50.104;14.472;2023-12-20T09:40:08;99069.49;;;6.42;72.49
83418;BME280;74442;50.104;14.472;2023-12-20T09:42:48;99068.12;;;6.43;72.29
83418;BME280;74442;50.104;14.472;2023-12-20T09:45:22;99062.30;;;6.47;72.58
83418;BME280;74442;50.104;14.472;2023-12-20T09:47:59;99063.56;;;6.53;72.21
83418;BME280;74442;50.104;14.472;2023-12-20T09:50:32;99058.58;;;6.55;72.08
83418;BME280;74442;50.104;14.472;2023-12-20T09:53:07;99058.80;;;6.59;71.63
83418;BME280;74442;50.104;14.472;2023-12-20T09:55:38;99061.40;;;6.60;71.18
83418;BME280;74442;50.104;14.472;2023-12-20T09:58:09;99061.30;;;6.81;70.68
83418;BME280;74442;50.104;14.472;2023-12-20T10:00:39;99059.88;;;7.12;70.23
83418;BME280;74442;50.104;14.472;2023-12-20T10:03:09;99062.34;;;7.18;69.84
83418;BME280;74442;50.104;14.472;2023-12-20T10:05:40;99060.48;;;7.22;69.45
83418;BME280;74442;50.104;14.472;2023-12-20T10:08:18;99057.05;;;7.26;69.01
83418;BME280;74442;50.104;14.472;2023-12-20T10:10:50;99065.20;;;7.27;68.77
83418;BME280;74442;50.104;14.472;2023-12-20T10:13:21;99062.60;;;7.27;68.74
83418;BME280;74442;50.104;14.472;2023-12-20T10:15:50;99049.81;;;7.30;68.39
83418;BME280;74442;50.104;14.472;2023-12-20T10:18:22;99042.18;;;7.29;68.35
83418;BME280;74442;50.104;14.472;2023-12-20T10:20:52;99044.65;;;7.33;68.06
83418;BME280;74442;50.104;14.472;2023-12-20T10:23:23;99047.27;;;7.37;68.27
83418;BME280;74442;50.104;14.472;2023-12-20T10:26:04;99044.17;;;7.39;68.21
83418;BME280;74442;50.104;14.472;2023-12-20T10:28:36;99041.67;;;7.30;68.37
83418;BME280;74442;50.104;14.472;2023-12-20T10:31:08;99040.07;;;7.23;68.23
83418;BME280;74442;50.104;14.472;2023-12-20T10:33:44;99041.37;;;7.35;67.54
83418;BME280;74442;50.104;14.472;2023-12-20T10:36:23;99043.93;;;7.76;66.43
83418;BME280;74442;50.104;14.472;2023-12-20T10:38:58;99039.54;;;7.94;66.29
83418;BME280;74442;50.104;14.472;2023-12-20T10:41:41;99036.63;;;8.03;66.22
83418;BME280;74442;50.104;14.472;2023-12-20T10:44:25;99028.04;;;8.15;66.12
83418;BME280;74442;50.104;14.472;2023-12-20T10:46:55;99018.70;;;8.19;65.92
83418;BME280;74442;50.104;14.472;2023-12-20T10:49:30;99017.09;;;8.47;64.91
83418;BME280;74442;50.104;14.472;2023-12-20T10:52:20;99024.34;;;9.01;62.40
83418;BME280;74442;50.104;14.472;2023-12-20T10:58:00;99010.73;;;9.89;61.13
83418;BME280;74442;50.104;14.472;2023-12-20T11:00:42;99008.28;;;10.82;58.95
83418;BME280;74442;50.104;14.472;2023-12-20T11:03:24;99006.13;;;11.37;57.82
83418;BME280;74442;50.104;14.472;2023-12-20T11:06:02;99007.95;;;12.03;55.31
83418;BME280;74442;50.104;14.472;2023-12-20T11:08:44;99003.95;;;12.61;54.18
83418;BME280;74442;50.104;14.472;2023-12-20T11:11:34;99008.09;;;12.51;53.42
83418;BME280;74442;50.104;14.472;2023-12-20T11:14:12;98999.32;;;13.04;51.96
83418;BME280;74442;50.104;14.472;2023-12-20T11:16:50;98998.86;;;13.45;49.42
83418;BME280;74442;50.104;14.472;2023-12-20T11:19:26;98993.77;;;13.66;49.19
83418;BME280;74442;50.104;14.472;2023-12-20T11:22:01;98995.10;;;13.69;48.13
83418;BME280;74442;50.104;14.472;2023-12-20T11:24:36;98992.52;;;13.47;48.69
83418;BME280;74442;50.104;14.472;2023-12-20T11:27:18;98990.69;;;13.63;47.42
83418;BME280;74442;50.104;14.472;2023-12-20T11:29:56;98986.70;;;13.79;48.18
83418;BME280;74442;50.104;14.472;2023-12-20T11:32:31;98986.85;;;14.08;46.87
83418;BME280;74442;50.104;14.472;2023-12-20T11:35:00;98982.22;;;14.04;45.89
83418;BME280;74442;50.104;14.472;2023-12-20T11:37:35;98974.02;;;13.83;47.03
83418;BME280;74442;50.104;14.472;2023-12-20T11:40:11;98975.10;;;13.10;47.36
83418;BME280;74442;50.104;14.472;2023-12-20T11:42:44;98973.35;;;12.23;49.34
83418;BME280;74442;50.104;14.472;2023-12-20T11:45:16;98968.34;;;11.72;50.98
83418;BME280;74442;50.104;14.472;2023-12-20T11:47:49;98985.66;;;11.65;50.89
83418;BME280;74442;50.104;14.472;2023-12-20T11:50:20;98978.34;;;11.47;51.54
83418;BME280;74442;50.104;14.472;2023-12-20T11:52:52;98957.02;;;12.04;50.07
83418;BME280;74442;50.104;14.472;2023-12-20T11:55:24;98958.45;;;12.66;48.51
83418;BME280;74442;50.104;14.472;2023-12-20T11:57:54;98954.80;;;13.13;47.95
83418;BME280;74442;50.104;14.472;2023-12-20T12:00:25;98953.95;;;12.99;47.43
83418;BME280;74442;50.104;14.472;2023-12-20T12:02:58;98941.86;;;12.29;48.21
83418;BME280;74442;50.104;14.472;2023-12-20T12:05:30;98943.66;;;11.97;48.91
83418;BME280;74442;50.104;14.472;2023-12-20T12:08:01;98950.39;;;12.04;48.91
83418;BME280;74442;50.104;14.472;2023-12-20T12:10:32;98954.20;;;12.34;48.25
83418;BME280;74442;50.104;14.472;2023-12-20T12:13:03;98956.80;;;12.62;48.10
83418;BME280;74442;50.104;14.472;2023-12-20T12:15:33;98960.27;;;12.97;47.74
83418;BME280;74442;50.104;14.472;2023-12-20T12:18:04;98962.35;;;13.32;47.02
83418;BME280;74442;50.104;14.472;2023-12-20T12:20:38;98959.02;;;13.43;45.13
83418;BME280;74442;50.104;14.472;2023-12-20T12:23:08;98948.73;;;13.31;45.31
83418;BME280;74442;50.104;14.472;2023-12-20T12:25:38;98951.08;;;13.38;45.28
83418;BME280;74442;50.104;14.472;2023-12-20T12:28:07;98945.19;;;13.54;44.93
83418;BME280;74442;50.104;14.472;2023-12-20T12:30:37;98936.94;;;13.65;44.30
83418;BME280;74442;50.104;14.472;2023-12-20T12:33:09;98934.29;;;13.76;44.94
83418;BME280;74442;50.104;14.472;2023-12-20T12:35:38;98923.73;;;13.96;43.70
83418;BME280;74442;50.104;14.472;2023-12-20T12:38:09;98922.06;;;14.09;43.27
83418;BME280;74442;50.104;14.472;2023-12-20T12:40:41;98922.09;;;14.08;43.01
83418;BME280;74442;50.104;14.472;2023-12-20T12:43:14;98924.73;;;14.24;42.86
83418;BME280;74442;50.104;14.472;2023-12-20T12:45:44;98922.59;;;14.34;41.90
83418;BME280;74442;50.104;14.472;2023-12-20T12:48:13;98924.18;;;14.33;41.54
83418;BME280;74442;50.104;14.472;2023-12-20T12:50:45;98917.18;;;14.41;42.00
83418;BME280;74442;50.104;14.472;2023-12-20T12:53:16;98914.04;;;14.50;41.16
83418;BME280;74442;50.104;14.472;2023-12-20T12:55:48;98917.04;;;14.64;40.33
83418;BME280;74442;50.104;14.472;2023-12-20T12:58:19;98919.85;;;14.57;40.30
83418;BME280;74442;50.104;14.472;2023-12-20T13:00:50;98911.61;;;14.40;39.48
83418;BME280;74442;50.104;14.472;2023-12-20T13:03:20;98905.93;;;14.10;40.43
83418;BME280;74442;50.104;14.472;2023-12-20T13:05:50;98908.19;;;13.94;41.02
83418;BME280;74442;50.104;14.472;2023-12-20T13:08:19;98907.49;;;13.09;41.83
83418;BME280;74442;50.104;14.472;2023-12-20T13:10:48;98912.25;;;12.25;43.17
83418;BME280;74442;50.104;14.472;2023-12-20T13:13:17;98899.83;;;11.54;43.97
83418;BME280;74442;50.104;14.472;2023-12-20T13:15:47;98920.95;;;10.94;45.28
83418;BME280;74442;50.104;14.472;2023-12-20T13:18:21;98903.36;;;10.49;46.58
83418;BME280;74442;50.104;14.472;2023-12-20T13:20:50;98906.98;;;10.25;47.52
83418;BME280;74442;50.104;14.472;2023-12-20T13:23:20;98911.25;;;10.65;47.25
83418;BME280;74442;50.104;14.472;2023-12-20T13:25:49;98906.18;;;11.47;46.35
83418;BME280;74442;50.104;14.472;2023-12-20T13:28:18;98906.09;;;11.87;45.75
83418;BME280;74442;50.104;14.472;2023-12-20T13:30:48;98902.67;;;12.48;44.56
83418;BME280;74442;50.104;14.472;2023-12-20T13:33:17;98895.87;;;12.82;41.86
83418;BME280;74442;50.104;14.472;2023-12-20T13:35:46;98900.25;;;13.03;41.45
83418;BME280;74442;50.104;14.472;2023-12-20T13:38:16;98910.83;;;13.30;41.33